Weather at Aquino Airfield

Public forecast

Using degrees Celsius for public forecast. Weather courtesy of forecast.io.

Closest aviation weather report (METAR) to Aquino Airfield

Report is more than 6 hours old.

Closest report is Frosinone Air Base, 20.9 nm (38.7 km) WNW.

2024/05/17 17:55 (retrieved 2 days ago)

LIRH 171755Z 19004KT CAVOK 22/12 Q1012 RMK SKC MON LIB NC VIS MIN 9999 WIND THR16 20004KT BLU

Closest aviation forecast (TAF) to Aquino Airfield

Closest forecast is Naples International Airport, 44.7 nm (82.8 km) SE.

2024/05/19 18:33 (retrieved 3 hours ago)

TAF LIRN 191700Z 1918/2018 VRB05KT 9999 SCT060 TEMPO 1922/2004 SHRA BECMG 2005/2008 03010KT TEMPO 2014/2018 TSRA